Terminal Aerodrome Forecast
Issued by NWS Mobile, AL

Home | Current Version | Previous Version | Text Only | Print | Product List | Glossary On
Versions: 1 2 3 4 5 6 7 8 9 10 11 12 13 14 15 16 17 18 19 20 21 22 23 24 25
000
FTUS44 KMOB 041334 AAA
TAFPNS
TAF AMD
KPNS 041334Z 0414/0512 01005KT P6SM SKC
     FM041500 35004KT P6SM FEW040 SCT250
     FM041800 21008KT P6SM VCTS SCT040CB SCT250
     FM050300 VRB03KT P6SM SCT250=

USA.gov is the U.S. government's official web portal to all federal, state and local government web resources and services.